Time;durP1;ratioP1;P1;durP2;ratioP2;P2;SDS_P1;SDS_P2;PMS_P1;PMS_P2;Temp;Humidity;BMP_temperature;BMP_pressure;BME280_temperature;BME280_humidity;BME280_pressure;Samples;Min_cycle;Max_cycle;Signal;HPM_P1;HPM_P2
2023/05/09 00:01:42;;;;;;;8.90;8.00;;;;;;;;;;5082923;28;20912;-80
2023/05/09 00:04:10;;;;;;;9.40;8.50;;;;;;;;;;5091390;28;20473;-80
2023/05/09 00:06:36;;;;;;;12.40;9.07;;;;;;;;;;5084525;28;20475;-79
2023/05/09 00:09:03;;;;;;;10.93;9.97;;;;;;;;;;5087294;28;20483;-80
2023/05/09 00:11:29;;;;;;;10.00;9.00;;;;;;;;;;5084869;28;21896;-80
2023/05/09 00:13:56;;;;;;;10.43;9.47;;;;;;;;;;5089261;28;20534;-80
2023/05/09 00:16:25;;;;;;;10.90;9.90;;;;;;;;;;5089848;28;20505;-80
2023/05/09 00:18:51;;;;;;;9.10;8.20;;;;;;;;;;5086476;28;20775;-80
2023/05/09 00:21:18;;;;;;;13.20;9.70;;;;;;;;;;5083966;28;20572;-81
2023/05/09 00:23:44;;;;;;;9.70;8.80;;;;;;;;;;5079944;28;20462;-81
2023/05/09 00:26:11;;;;;;;11.10;10.00;;;;;;;;;;5084530;28;20480;-81
2023/05/09 00:28:37;;;;;;;10.23;9.20;;;;;;;;;;5088834;28;20443;-80
2023/05/09 00:31:04;;;;;;;12.33;8.90;;;;;;;;;;5084012;28;20487;-80
2023/05/09 00:33:32;;;;;;;9.63;8.73;;;;;;;;;;5086231;28;20512;-81
2023/05/09 00:35:58;;;;;;;9.87;8.97;;;;;;;;;;5080290;28;20505;-81
2023/05/09 00:38:25;;;;;;;9.53;8.63;;;;;;;;;;5092853;28;20482;-80
2023/05/09 00:40:51;;;;;;;10.47;9.47;;;;;;;;;;5091229;28;20487;-80
2023/05/09 00:43:17;;;;;;;10.27;8.63;;;;;;;;;;5076603;28;20507;-81
2023/05/09 00:45:44;;;;;;;10.60;9.60;;;;;;;;;;5078144;28;20468;-80
2023/05/09 00:48:11;;;;;;;10.27;9.27;;;;;;;;;;5084052;28;20456;-80
2023/05/09 00:50:38;;;;;;;10.47;9.33;;;;;;;;;;5083258;28;20494;-80
2023/05/09 00:53:05;;;;;;;10.63;9.40;;;;;;;;;;5080929;28;20468;-80
2023/05/09 00:55:32;;;;;;;10.23;9.23;;;;;;;;;;5083029;28;20472;-80
2023/05/09 00:57:58;;;;;;;9.73;8.83;;;;;;;;;;5086199;28;20463;-80
2023/05/09 01:00:25;;;;;;;9.93;9.00;;;;;;;;;;5083464;28;20448;-80
2023/05/09 01:02:53;;;;;;;9.30;8.27;;;;;;;;;;5084496;28;20468;-80
2023/05/09 01:05:20;;;;;;;8.97;8.20;;;;;;;;;;5084277;28;20499;-81
2023/05/09 01:07:50;;;;;;;9.33;8.40;;;;;;;;;;5085640;28;20483;-81
2023/05/09 01:10:21;;;;;;;10.73;7.70;;;;;;;;;;5089115;28;20459;-81
2023/05/09 01:12:54;;;;;;;8.83;8.03;;;;;;;;;;5082652;28;20543;-81
2023/05/09 01:15:23;;;;;;;9.70;8.80;;;;;;;;;;5080983;28;20525;-82
2023/05/09 01:17:54;;;;;;;13.60;8.33;;;;;;;;;;5080102;28;20534;-82
2023/05/09 01:20:23;;;;;;;8.80;8.00;;;;;;;;;;5069860;28;20983;-82
2023/05/09 01:22:55;;;;;;;9.20;7.50;;;;;;;;;;5086407;28;20513;-81
2023/05/09 01:25:36;;;;;;;8.43;7.63;;;;;;;;;;5071435;28;20459;-83
2023/05/09 01:28:07;;;;;;;9.00;8.10;;;;;;;;;;5079511;28;20465;-83
2023/05/09 01:30:35;;;;;;;8.67;7.50;;;;;;;;;;5082518;28;20463;-83
2023/05/09 01:33:05;;;;;;;8.43;7.03;;;;;;;;;;5085403;28;20479;-83
2023/05/09 01:35:33;;;;;;;7.73;7.03;;;;;;;;;;5083448;28;20495;-80
2023/05/09 01:37:59;;;;;;;10.40;7.70;;;;;;;;;;5083376;28;20491;-81
2023/05/09 01:40:29;;;;;;;8.03;7.20;;;;;;;;;;5082628;28;20628;-82
2023/05/09 01:42:57;;;;;;;7.20;6.50;;;;;;;;;;5089324;28;20535;-81
2023/05/09 01:45:25;;;;;;;7.77;7.07;;;;;;;;;;5084308;28;20487;-81
2023/05/09 01:47:53;;;;;;;7.13;6.43;;;;;;;;;;5084287;28;20460;-81
2023/05/09 01:50:20;;;;;;;8.40;7.27;;;;;;;;;;5081342;28;20460;-82
2023/05/09 01:52:48;;;;;;;7.97;6.87;;;;;;;;;;5077372;28;20555;-81
2023/05/09 01:55:15;;;;;;;8.07;6.93;;;;;;;;;;5081767;28;20959;-81
2023/05/09 01:57:43;;;;;;;8.23;6.90;;;;;;;;;;5082508;28;20479;-80
2023/05/09 02:00:11;;;;;;;7.80;7.10;;;;;;;;;;5084373;28;20483;-81
2023/05/09 02:02:38;;;;;;;7.80;6.87;;;;;;;;;;5082911;28;20480;-81
2023/05/09 02:05:07;;;;;;;8.10;7.37;;;;;;;;;;5081608;28;20526;-80
2023/05/09 02:07:34;;;;;;;7.20;6.50;;;;;;;;;;5077222;28;20488;-81
2023/05/09 02:10:02;;;;;;;8.40;7.60;;;;;;;;;;5082722;28;20531;-80
2023/05/09 02:12:28;;;;;;;8.50;7.33;;;;;;;;;;5081898;28;20536;-80
2023/05/09 02:14:55;;;;;;;6.97;6.30;;;;;;;;;;5077877;28;21106;-81
2023/05/09 02:17:21;;;;;;;8.00;7.27;;;;;;;;;;5084260;28;20483;-80
2023/05/09 02:19:48;;;;;;;8.87;7.17;;;;;;;;;;5078759;28;20514;-80
2023/05/09 02:22:15;;;;;;;8.53;7.07;;;;;;;;;;5081498;28;20904;-81
2023/05/09 02:24:42;;;;;;;8.87;7.63;;;;;;;;;;5075830;28;20560;-81
2023/05/09 02:27:10;;;;;;;6.60;6.00;;;;;;;;;;5090571;28;20514;-82
2023/05/09 02:29:39;;;;;;;8.40;7.40;;;;;;;;;;5098735;28;20921;-81
2023/05/09 02:32:07;;;;;;;8.37;7.53;;;;;;;;;;5079184;28;20477;-82
2023/05/09 02:34:35;;;;;;;9.33;7.13;;;;;;;;;;5082682;28;20456;-82
2023/05/09 02:37:02;;;;;;;7.27;6.57;;;;;;;;;;5074782;28;20906;-81
2023/05/09 02:39:30;;;;;;;7.67;6.87;;;;;;;;;;5084322;28;20491;-82
2023/05/09 02:41:56;;;;;;;9.40;7.63;;;;;;;;;;5079996;28;20487;-82
2023/05/09 02:44:22;;;;;;;8.90;8.00;;;;;;;;;;5072170;28;20523;-81
2023/05/09 02:46:49;;;;;;;7.60;6.80;;;;;;;;;;5080348;28;20503;-81
2023/05/09 02:49:15;;;;;;;8.30;7.37;;;;;;;;;;5077267;28;20490;-82
2023/05/09 02:51:42;;;;;;;9.93;7.63;;;;;;;;;;5094707;28;20475;-84
2023/05/09 02:54:08;;;;;;;9.40;8.17;;;;;;;;;;5080890;28;20488;-83
2023/05/09 02:56:36;;;;;;;8.23;7.43;;;;;;;;;;5080689;28;20482;-84
2023/05/09 02:59:02;;;;;;;9.37;8.47;;;;;;;;;;5082054;28;20444;-81
2023/05/09 03:01:29;;;;;;;11.07;8.23;;;;;;;;;;5080687;28;20523;-81
2023/05/09 03:03:55;;;;;;;9.47;8.53;;;;;;;;;;5081964;28;20567;-81
2023/05/09 03:06:22;;;;;;;7.97;7.17;;;;;;;;;;5079970;28;20500;-81
2023/05/09 03:08:48;;;;;;;8.70;7.93;;;;;;;;;;5081203;28;20499;-80
2023/05/09 03:11:15;;;;;;;8.50;7.70;;;;;;;;;;5085694;28;20902;-80
2023/05/09 03:13:43;;;;;;;9.20;8.40;;;;;;;;;;5086735;28;20471;-80
2023/05/09 03:16:12;;;;;;;9.40;8.40;;;;;;;;;;5086173;28;20498;-80
2023/05/09 03:18:38;;;;;;;13.33;8.03;;;;;;;;;;5086422;28;20490;-80
2023/05/09 03:21:05;;;;;;;9.90;9.00;;;;;;;;;;5080339;28;20916;-80
2023/05/09 03:23:31;;;;;;;8.57;7.73;;;;;;;;;;5081266;28;20472;-80
2023/05/09 03:25:58;;;;;;;14.90;7.73;;;;;;;;;;5086516;28;21043;-81
2023/05/09 03:28:24;;;;;;;9.50;8.50;;;;;;;;;;5084425;28;20493;-81
2023/05/09 03:30:52;;;;;;;9.37;8.23;;;;;;;;;;5083411;28;20555;-82
2023/05/09 03:33:19;;;;;;;9.33;8.00;;;;;;;;;;5089337;28;20479;-81
2023/05/09 03:35:45;;;;;;;9.17;8.37;;;;;;;;;;5081448;28;20492;-81
2023/05/09 03:38:11;;;;;;;8.47;7.67;;;;;;;;;;5074893;28;20490;-82
2023/05/09 03:40:38;;;;;;;7.97;7.20;;;;;;;;;;5079122;28;20468;-81
2023/05/09 03:43:04;;;;;;;7.87;6.97;;;;;;;;;;5095350;28;20542;-81
2023/05/09 03:45:31;;;;;;;8.87;7.97;;;;;;;;;;5097215;28;20506;-81
2023/05/09 03:47:58;;;;;;;8.13;7.33;;;;;;;;;;5084212;28;20459;-79
2023/05/09 03:50:25;;;;;;;7.67;6.97;;;;;;;;;;5079431;28;20456;-81
2023/05/09 03:52:54;;;;;;;8.97;8.10;;;;;;;;;;5086352;28;20444;-79
2023/05/09 03:55:22;;;;;;;9.70;6.57;;;;;;;;;;5090926;28;20525;-78
2023/05/09 03:57:49;;;;;;;8.30;7.50;;;;;;;;;;5085496;28;20464;-80
2023/05/09 04:00:15;;;;;;;7.43;6.73;;;;;;;;;;5082397;28;20452;-79
2023/05/09 04:02:42;;;;;;;8.43;6.30;;;;;;;;;;5081135;28;20574;-80
2023/05/09 04:05:10;;;;;;;7.20;6.53;;;;;;;;;;5082214;28;20557;-79
2023/05/09 04:07:36;;;;;;;7.20;6.50;;;;;;;;;;5089113;28;20559;-79
2023/05/09 04:10:03;;;;;;;6.97;6.27;;;;;;;;;;5095424;28;20453;-79
2023/05/09 04:12:29;;;;;;;6.57;5.97;;;;;;;;;;5087450;28;20877;-79
2023/05/09 04:14:56;;;;;;;6.37;5.77;;;;;;;;;;5077875;28;20455;-79
2023/05/09 04:17:22;;;;;;;7.23;6.20;;;;;;;;;;5081127;28;20515;-81
2023/05/09 04:19:48;;;;;;;7.63;5.67;;;;;;;;;;5088403;28;21046;-81
2023/05/09 04:22:16;;;;;;;8.43;5.53;;;;;;;;;;5084179;28;20480;-80
2023/05/09 04:24:43;;;;;;;5.90;5.40;;;;;;;;;;5086294;28;20455;-82
2023/05/09 04:27:09;;;;;;;5.17;4.70;;;;;;;;;;5079314;28;21046;-81
2023/05/09 04:29:35;;;;;;;6.17;4.80;;;;;;;;;;5085052;28;20452;-81
2023/05/09 04:32:03;;;;;;;5.60;4.57;;;;;;;;;;5084775;28;20481;-81
2023/05/09 04:34:30;;;;;;;5.87;5.00;;;;;;;;;;5083237;28;20474;-76
2023/05/09 04:36:57;;;;;;;5.63;5.13;;;;;;;;;;5075536;28;20487;-85
2023/05/09 04:39:25;;;;;;;5.10;4.70;;;;;;;;;;5083055;28;20452;-84
2023/05/09 04:41:51;;;;;;;5.77;5.20;;;;;;;;;;5081696;28;20476;-91
2023/05/09 04:44:18;;;;;;;5.57;4.73;;;;;;;;;;5076307;28;20533;-91
2023/05/09 04:46:45;;;;;;;6.93;5.83;;;;;;;;;;5080477;28;20497;-91
2023/05/09 04:49:11;;;;;;;6.00;5.40;;;;;;;;;;5090816;28;20523;-90
2023/05/09 04:51:37;;;;;;;5.60;4.60;;;;;;;;;;5094833;28;20478;-91
2023/05/09 04:54:04;;;;;;;5.10;4.60;;;;;;;;;;5078936;28;20483;-90
2023/05/09 04:56:32;;;;;;;6.50;5.80;;;;;;;;;;5078820;28;20472;-91
2023/05/09 04:58:58;;;;;;;5.33;4.53;;;;;;;;;;5082932;28;20524;-82
2023/05/09 05:01:25;;;;;;;6.77;5.40;;;;;;;;;;5090974;28;20476;-82
2023/05/09 05:03:51;;;;;;;9.10;4.90;;;;;;;;;;5092020;28;20495;-82
2023/05/09 05:06:18;;;;;;;5.10;4.60;;;;;;;;;;5075515;28;20483;-82
2023/05/09 05:08:44;;;;;;;6.63;5.70;;;;;;;;;;5082097;28;20487;-81
2023/05/09 05:11:12;;;;;;;7.40;5.43;;;;;;;;;;5075355;28;20483;-82
2023/05/09 05:13:40;;;;;;;6.10;5.17;;;;;;;;;;5083242;28;20440;-82
2023/05/09 05:16:07;;;;;;;5.37;4.87;;;;;;;;;;5075207;28;20506;-82
2023/05/09 05:18:33;;;;;;;5.17;4.67;;;;;;;;;;5081539;28;20581;-81
2023/05/09 05:20:59;;;;;;;7.87;4.60;;;;;;;;;;5075827;28;20560;-82
2023/05/09 05:23:26;;;;;;;6.03;5.03;;;;;;;;;;5084061;28;20954;-82
2023/05/09 05:25:52;;;;;;;5.10;4.30;;;;;;;;;;5082954;28;20472;-81
2023/05/09 05:28:19;;;;;;;6.73;5.33;;;;;;;;;;5087036;28;20455;-80
2023/05/09 05:30:46;;;;;;;5.90;5.30;;;;;;;;;;5082750;28;20480;-83
2023/05/09 05:33:13;;;;;;;9.53;5.10;;;;;;;;;;5085419;28;20563;-82
2023/05/09 05:35:39;;;;;;;5.30;4.80;;;;;;;;;;5080370;28;20490;-82
2023/05/09 05:38:06;;;;;;;5.43;4.70;;;;;;;;;;5076536;28;20479;-82
2023/05/09 05:40:32;;;;;;;7.40;5.10;;;;;;;;;;5082132;28;20494;-82
2023/05/09 05:42:59;;;;;;;5.40;4.90;;;;;;;;;;5090264;28;20491;-82
2023/05/09 05:45:25;;;;;;;6.40;5.77;;;;;;;;;;5086444;28;20447;-82
2023/05/09 05:47:53;;;;;;;6.53;5.60;;;;;;;;;;5082187;28;20863;-81
2023/05/09 05:50:20;;;;;;;6.07;4.97;;;;;;;;;;5080648;28;20456;-82
2023/05/09 05:52:46;;;;;;;6.37;4.80;;;;;;;;;;5082739;28;20452;-82
2023/05/09 05:55:12;;;;;;;8.90;5.03;;;;;;;;;;5081272;28;20455;-82
2023/05/09 05:57:39;;;;;;;5.33;4.83;;;;;;;;;;5081576;28;20487;-82
2023/05/09 06:00:08;;;;;;;5.70;5.20;;;;;;;;;;5081377;28;20483;-82
2023/05/09 06:02:34;;;;;;;5.60;5.07;;;;;;;;;;5079617;28;20476;-82
2023/05/09 06:05:02;;;;;;;5.70;5.10;;;;;;;;;;5083932;28;20491;-82
2023/05/09 06:07:29;;;;;;;6.30;5.70;;;;;;;;;;5084535;28;20555;-82
2023/05/09 06:09:55;;;;;;;6.47;5.87;;;;;;;;;;5081362;28;20444;-82
2023/05/09 06:12:22;;;;;;;7.03;5.50;;;;;;;;;;5079980;28;20504;-82
2023/05/09 06:14:48;;;;;;;7.47;6.37;;;;;;;;;;5089669;28;20451;-81
2023/05/09 06:17:15;;;;;;;6.67;5.70;;;;;;;;;;5086678;28;20502;-82
2023/05/09 06:19:41;;;;;;;6.27;5.70;;;;;;;;;;5082894;28;20447;-82
2023/05/09 06:22:10;;;;;;;6.47;5.53;;;;;;;;;;5081016;28;21081;-81
2023/05/09 06:24:36;;;;;;;7.03;6.33;;;;;;;;;;5081184;28;20479;-81
2023/05/09 06:27:03;;;;;;;9.33;6.70;;;;;;;;;;5081835;28;20475;-84
2023/05/09 06:29:30;;;;;;;7.70;7.00;;;;;;;;;;5086276;28;20448;-82
2023/05/09 06:31:56;;;;;;;8.03;7.23;;;;;;;;;;5076445;28;20488;-80
2023/05/09 06:34:22;;;;;;;8.23;7.43;;;;;;;;;;5082020;28;20481;-81
2023/05/09 06:36:49;;;;;;;9.00;7.70;;;;;;;;;;5080726;28;20475;-82
2023/05/09 06:39:17;;;;;;;9.20;7.30;;;;;;;;;;5085928;28;20447;-81
2023/05/09 06:41:43;;;;;;;8.80;7.90;;;;;;;;;;5068320;28;20481;-80
2023/05/09 06:44:10;;;;;;;7.97;7.27;;;;;;;;;;5075499;28;20513;-80
2023/05/09 06:46:36;;;;;;;10.10;9.20;;;;;;;;;;5070062;28;20481;-81
2023/05/09 06:49:04;;;;;;;10.83;9.20;;;;;;;;;;5080660;28;20472;-82
2023/05/09 06:51:31;;;;;;;11.90;10.80;;;;;;;;;;5077660;28;20479;-80
2023/05/09 06:53:57;;;;;;;10.40;9.40;;;;;;;;;;5081550;28;20456;-80
2023/05/09 06:56:25;;;;;;;11.53;9.90;;;;;;;;;;5085200;28;20502;-81
2023/05/09 06:58:52;;;;;;;11.23;10.03;;;;;;;;;;5073005;28;20449;-80
2023/05/09 07:01:18;;;;;;;11.50;10.30;;;;;;;;;;5076948;28;20550;-81
2023/05/09 07:03:46;;;;;;;10.77;9.77;;;;;;;;;;5068528;28;20519;-79
2023/05/09 07:06:12;;;;;;;10.90;9.80;;;;;;;;;;5079409;28;20471;-79
2023/05/09 07:08:39;;;;;;;11.70;10.47;;;;;;;;;;5070395;28;20526;-79
2023/05/09 07:11:05;;;;;;;10.93;9.83;;;;;;;;;;5071513;28;20495;-81
2023/05/09 07:13:33;;;;;;;11.13;9.93;;;;;;;;;;5080551;28;20447;-80
2023/05/09 07:16:00;;;;;;;11.07;9.87;;;;;;;;;;5085644;28;20479;-80
2023/05/09 07:18:27;;;;;;;13.50;12.20;;;;;;;;;;5074596;28;20456;-80
2023/05/09 07:20:53;;;;;;;11.87;10.67;;;;;;;;;;5076279;28;20468;-80
2023/05/09 07:23:20;;;;;;;12.80;11.03;;;;;;;;;;5082213;28;20514;-80
2023/05/09 07:25:47;;;;;;;13.70;11.10;;;;;;;;;;5079042;28;20533;-80
2023/05/09 07:28:13;;;;;;;12.47;11.17;;;;;;;;;;5080567;28;20468;-80
2023/05/09 07:30:42;;;;;;;13.60;11.63;;;;;;;;;;5076457;28;20498;-80
2023/05/09 07:33:09;;;;;;;12.10;10.90;;;;;;;;;;5080609;28;20459;-79
2023/05/09 07:35:35;;;;;;;12.43;11.30;;;;;;;;;;5070297;28;20482;-79
2023/05/09 07:38:01;;;;;;;10.90;10.00;;;;;;;;;;5073514;28;20461;-80
2023/05/09 07:40:28;;;;;;;11.63;10.63;;;;;;;;;;5091828;28;20472;-80
2023/05/09 07:42:55;;;;;;;12.47;11.27;;;;;;;;;;5080955;28;20456;-79
2023/05/09 07:45:22;;;;;;;11.73;10.53;;;;;;;;;;5066687;28;20547;-79
2023/05/09 07:47:49;;;;;;;11.93;10.20;;;;;;;;;;5082315;28;20508;-80
2023/05/09 07:50:16;;;;;;;12.37;11.17;;;;;;;;;;5082141;28;20835;-80
2023/05/09 07:52:43;;;;;;;12.17;10.97;;;;;;;;;;5073701;28;20525;-80
2023/05/09 07:55:11;;;;;;;13.13;9.87;;;;;;;;;;5082826;28;20490;-80
2023/05/09 07:57:38;;;;;;;12.97;9.83;;;;;;;;;;5075023;28;20528;-80
2023/05/09 08:00:06;;;;;;;11.10;10.00;;;;;;;;;;5077464;28;20463;-80
2023/05/09 08:02:32;;;;;;;11.50;10.40;;;;;;;;;;5073046;28;20514;-81
2023/05/09 08:05:00;;;;;;;11.50;10.40;;;;;;;;;;5075179;28;20692;-80
2023/05/09 08:07:27;;;;;;;11.77;10.43;;;;;;;;;;5085563;28;20483;-79
2023/05/09 08:09:53;;;;;;;14.93;12.50;;;;;;;;;;5077972;28;20463;-79
2023/05/09 08:12:19;;;;;;;12.37;11.17;;;;;;;;;;5079218;28;20486;-80
2023/05/09 08:14:46;;;;;;;12.40;11.20;;;;;;;;;;5081282;28;20448;-79
2023/05/09 08:17:12;;;;;;;12.03;10.83;;;;;;;;;;5083091;28;20498;-80
2023/05/09 08:19:39;;;;;;;13.20;11.90;;;;;;;;;;5079670;28;20477;-79
2023/05/09 08:22:07;;;;;;;13.17;11.67;;;;;;;;;;5080181;28;20483;-80
2023/05/09 08:24:34;;;;;;;11.73;10.73;;;;;;;;;;5087218;28;20522;-79
2023/05/09 08:27:00;;;;;;;12.77;11.40;;;;;;;;;;5080728;28;20492;-79
2023/05/09 08:29:27;;;;;;;13.43;12.13;;;;;;;;;;5087020;28;20465;-79
2023/05/09 08:31:54;;;;;;;12.97;10.80;;;;;;;;;;5082639;28;20476;-79
2023/05/09 08:34:21;;;;;;;11.63;10.50;;;;;;;;;;5085080;28;20474;-78
2023/05/09 08:36:47;;;;;;;12.67;11.40;;;;;;;;;;5079585;28;20483;-79
2023/05/09 08:39:15;;;;;;;11.73;10.57;;;;;;;;;;5082466;28;20456;-79
2023/05/09 08:41:42;;;;;;;13.07;11.70;;;;;;;;;;5088701;28;20475;-79
2023/05/09 08:44:08;;;;;;;14.00;12.67;;;;;;;;;;5087890;28;20511;-79
2023/05/09 08:46:37;;;;;;;13.03;11.70;;;;;;;;;;5076048;28;20480;-78
2023/05/09 08:49:05;;;;;;;12.00;10.90;;;;;;;;;;5082337;28;20452;-78
2023/05/09 08:51:32;;;;;;;11.83;10.63;;;;;;;;;;5085844;28;20480;-79
2023/05/09 08:53:59;;;;;;;12.23;11.00;;;;;;;;;;5080135;28;20448;-78
2023/05/09 08:56:27;;;;;;;11.40;10.40;;;;;;;;;;5070998;28;20542;-79
2023/05/09 08:58:54;;;;;;;12.43;11.00;;;;;;;;;;5079910;28;20455;-79
2023/05/09 09:01:20;;;;;;;13.97;12.43;;;;;;;;;;5080803;28;20541;-79
2023/05/09 09:03:48;;;;;;;13.13;10.27;;;;;;;;;;5083463;28;20474;-78
2023/05/09 09:06:15;;;;;;;13.27;11.17;;;;;;;;;;5076719;28;20484;-78
2023/05/09 09:08:42;;;;;;;12.53;11.30;;;;;;;;;;5081436;28;20488;-80
2023/05/09 09:11:10;;;;;;;10.73;9.63;;;;;;;;;;5074510;28;20475;-79
2023/05/09 09:13:40;;;;;;;13.63;11.53;;;;;;;;;;5085259;28;20452;-79
2023/05/09 09:16:09;;;;;;;12.47;11.13;;;;;;;;;;5081990;28;20515;-78
2023/05/09 09:18:36;;;;;;;13.43;11.77;;;;;;;;;;5082177;28;20471;-79
2023/05/09 09:21:05;;;;;;;13.63;12.30;;;;;;;;;;5080642;28;20548;-79
2023/05/09 09:23:32;;;;;;;13.30;12.10;;;;;;;;;;5078855;28;20441;-79
2023/05/09 09:25:59;;;;;;;12.87;11.60;;;;;;;;;;5080660;28;20561;-79
2023/05/09 09:28:26;;;;;;;13.10;11.80;;;;;;;;;;5073365;28;20451;-79
2023/05/09 09:30:54;;;;;;;13.07;11.77;;;;;;;;;;5071714;28;20595;-80
2023/05/09 09:33:21;;;;;;;12.00;10.80;;;;;;;;;;5086078;28;20456;-79
2023/05/09 09:35:48;;;;;;;12.20;11.00;;;;;;;;;;5081910;28;20480;-79
2023/05/09 09:38:15;;;;;;;12.07;10.87;;;;;;;;;;5081987;28;20456;-79
2023/05/09 09:40:48;;;;;;;12.37;11.07;;;;;;;;;;5081263;28;20566;-80
2023/05/09 09:43:15;;;;;;;12.33;11.20;;;;;;;;;;5083849;28;20975;-79
2023/05/09 09:45:41;;;;;;;12.07;10.90;;;;;;;;;;5082079;28;20503;-79
2023/05/09 09:48:09;;;;;;;13.80;11.53;;;;;;;;;;5082212;28;20455;-79
2023/05/09 09:50:36;;;;;;;13.43;12.03;;;;;;;;;;5079258;28;20586;-79
2023/05/09 09:53:02;;;;;;;13.37;12.07;;;;;;;;;;5074505;28;20440;-78
2023/05/09 09:55:29;;;;;;;12.13;10.60;;;;;;;;;;5080726;28;20519;-79
2023/05/09 09:57:55;;;;;;;11.40;10.30;;;;;;;;;;5084207;28;20460;-79
2023/05/09 10:00:25;;;;;;;12.83;10.43;;;;;;;;;;5079786;28;20504;-78
2023/05/09 10:02:52;;;;;;;12.57;11.37;;;;;;;;;;5080980;28;20475;-79
2023/05/09 10:05:21;;;;;;;13.10;9.80;;;;;;;;;;5083297;28;20484;-79
2023/05/09 10:07:53;;;;;;;15.70;10.20;;;;;;;;;;5087742;28;20569;-79
2023/05/09 10:10:19;;;;;;;11.20;10.20;;;;;;;;;;5083205;28;20514;-79
2023/05/09 10:12:46;;;;;;;10.60;9.60;;;;;;;;;;5092164;28;20474;-79
2023/05/09 10:15:13;;;;;;;10.53;9.43;;;;;;;;;;5081263;28;20451;-79
2023/05/09 10:17:40;;;;;;;10.17;9.27;;;;;;;;;;5081100;28;20480;-79
2023/05/09 10:20:07;;;;;;;10.90;9.90;;;;;;;;;;5081314;28;20460;-79
2023/05/09 10:22:36;;;;;;;11.67;10.50;;;;;;;;;;5081796;28;20554;-79
2023/05/09 10:25:03;;;;;;;12.83;11.30;;;;;;;;;;5080427;28;20916;-79
2023/05/09 10:27:31;;;;;;;11.60;10.47;;;;;;;;;;5085153;28;20487;-78
2023/05/09 10:30:03;;;;;;;11.73;10.63;;;;;;;;;;5082228;28;20458;-79
2023/05/09 10:32:31;;;;;;;10.90;9.80;;;;;;;;;;5079376;28;20476;-80
2023/05/09 10:35:01;;;;;;;12.80;11.37;;;;;;;;;;5080846;28;20538;-80
2023/05/09 10:37:28;;;;;;;12.73;11.30;;;;;;;;;;5080759;28;20499;-79
2023/05/09 10:39:56;;;;;;;10.17;9.27;;;;;;;;;;5089013;28;20714;-79
2023/05/09 10:42:24;;;;;;;12.33;11.07;;;;;;;;;;5084292;28;20510;-79
2023/05/09 10:44:51;;;;;;;11.87;10.67;;;;;;;;;;5080743;28;20488;-79
2023/05/09 10:47:18;;;;;;;11.17;10.17;;;;;;;;;;5079556;28;20511;-78
2023/05/09 10:49:44;;;;;;;12.20;10.63;;;;;;;;;;5081207;28;21224;-78
2023/05/09 10:52:11;;;;;;;10.40;9.30;;;;;;;;;;5080625;28;20536;-79
2023/05/09 10:54:38;;;;;;;10.80;9.70;;;;;;;;;;5085823;28;21177;-79
2023/05/09 10:57:05;;;;;;;11.20;10.20;;;;;;;;;;5082687;28;20476;-79
2023/05/09 10:59:34;;;;;;;11.80;10.60;;;;;;;;;;5081864;28;20452;-79
2023/05/09 11:02:02;;;;;;;12.30;11.20;;;;;;;;;;5080243;28;20475;-79
2023/05/09 11:04:28;;;;;;;11.07;10.07;;;;;;;;;;5082232;28;20502;-79
2023/05/09 11:06:55;;;;;;;10.97;8.67;;;;;;;;;;5080671;28;20533;-79
2023/05/09 11:09:28;;;;;;;12.90;10.77;;;;;;;;;;5087314;28;20479;-79
2023/05/09 11:11:56;;;;;;;10.93;9.90;;;;;;;;;;5084068;28;20484;-79
2023/05/09 11:14:30;;;;;;;12.50;10.00;;;;;;;;;;5081917;28;20512;-79
2023/05/09 11:16:57;;;;;;;12.67;11.47;;;;;;;;;;5069622;28;20474;-79
2023/05/09 11:19:33;;;;;;;8.70;7.90;;;;;;;;;;5075235;28;20452;-79
2023/05/09 11:22:01;;;;;;;10.83;9.73;;;;;;;;;;5081394;28;20483;-79
2023/05/09 11:24:29;;;;;;;9.97;9.07;;;;;;;;;;5081568;28;20884;-79
2023/05/09 11:26:56;;;;;;;10.87;8.80;;;;;;;;;;5080815;28;20479;-79
2023/05/09 11:29:26;;;;;;;10.07;9.07;;;;;;;;;;5082151;28;20537;-79
2023/05/09 11:32:05;;;;;;;11.17;10.17;;;;;;;;;;5086988;28;20509;-78
2023/05/09 11:34:33;;;;;;;9.90;9.00;;;;;;;;;;5077892;28;20507;-79
2023/05/09 11:37:07;;;;;;;12.20;9.93;;;;;;;;;;5080292;28;20480;-78
2023/05/09 11:39:33;;;;;;;10.23;9.23;;;;;;;;;;5084983;28;20456;-79
2023/05/09 11:42:00;;;;;;;10.40;9.30;;;;;;;;;;5083146;28;20517;-80
2023/05/09 11:44:29;;;;;;;10.90;9.80;;;;;;;;;;5081773;28;20531;-79
2023/05/09 11:46:57;;;;;;;11.57;9.63;;;;;;;;;;5079854;28;20479;-79
2023/05/09 11:49:27;;;;;;;9.40;8.50;;;;;;;;;;5091704;28;20457;-79
2023/05/09 11:51:54;;;;;;;11.70;9.10;;;;;;;;;;5071565;28;20503;-79
2023/05/09 11:54:23;;;;;;;8.73;7.93;;;;;;;;;;5085415;28;20483;-79
2023/05/09 11:56:50;;;;;;;8.87;7.97;;;;;;;;;;5088186;28;20542;-79
2023/05/09 11:59:17;;;;;;;9.77;8.90;;;;;;;;;;5088845;28;20626;-79
2023/05/09 12:01:44;;;;;;;9.23;8.43;;;;;;;;;;5082869;28;20479;-79
2023/05/09 12:04:10;;;;;;;9.30;8.40;;;;;;;;;;5092079;28;20469;-79
2023/05/09 12:06:38;;;;;;;9.00;8.20;;;;;;;;;;5084174;28;20517;-80
2023/05/09 12:09:05;;;;;;;8.40;7.70;;;;;;;;;;5091400;28;20487;-78
2023/05/09 12:11:33;;;;;;;9.13;8.33;;;;;;;;;;5088368;28;20532;-79
2023/05/09 12:14:00;;;;;;;8.23;7.53;;;;;;;;;;5096425;28;20458;-79
2023/05/09 12:16:26;;;;;;;7.47;6.70;;;;;;;;;;5100980;28;20565;-78
2023/05/09 12:18:53;;;;;;;8.30;7.57;;;;;;;;;;5092740;28;20486;-79
2023/05/09 12:21:20;;;;;;;7.90;7.03;;;;;;;;;;5079581;28;20476;-80
2023/05/09 12:23:48;;;;;;;12.20;6.43;;;;;;;;;;5081176;28;20913;-79
2023/05/09 12:26:15;;;;;;;6.20;5.60;;;;;;;;;;5095069;28;20625;-78
2023/05/09 12:28:42;;;;;;;6.07;5.53;;;;;;;;;;5087917;28;20452;-79
2023/05/09 12:31:09;;;;;;;6.43;5.83;;;;;;;;;;5070270;28;20483;-79
2023/05/09 12:33:37;;;;;;;6.60;6.00;;;;;;;;;;5078422;28;20456;-78
2023/05/09 12:36:05;;;;;;;10.20;6.17;;;;;;;;;;5085657;28;20487;-79
2023/05/09 12:38:31;;;;;;;6.80;6.13;;;;;;;;;;5084718;28;20475;-79
2023/05/09 12:41:03;;;;;;;6.03;5.43;;;;;;;;;;5089857;28;20513;-79
2023/05/09 12:43:30;;;;;;;6.47;5.90;;;;;;;;;;5083431;28;20823;-81
2023/05/09 12:45:57;;;;;;;6.80;6.20;;;;;;;;;;5081478;28;20477;-80
2023/05/09 12:48:24;;;;;;;6.57;5.97;;;;;;;;;;5083987;28;20459;-80
2023/05/09 12:50:51;;;;;;;8.53;5.43;;;;;;;;;;5081954;28;20504;-80
2023/05/09 12:53:23;;;;;;;5.80;5.30;;;;;;;;;;5082615;28;20952;-80
2023/05/09 12:55:50;;;;;;;13.73;5.53;;;;;;;;;;5083485;28;20479;-80
2023/05/09 12:58:17;;;;;;;6.80;6.10;;;;;;;;;;5093394;28;20458;-82
2023/05/09 13:00:44;;;;;;;8.00;5.63;;;;;;;;;;5094117;28;20998;-80
2023/05/09 13:03:20;;;;;;;7.23;6.60;;;;;;;;;;5091793;28;20447;-80
2023/05/09 13:05:54;;;;;;;9.30;6.47;;;;;;;;;;5080317;28;21498;-80
2023/05/09 13:08:21;;;;;;;8.00;7.17;;;;;;;;;;5083779;28;21034;-80
2023/05/09 13:10:47;;;;;;;7.97;7.10;;;;;;;;;;5087106;28;20536;-81
2023/05/09 13:13:15;;;;;;;7.67;6.87;;;;;;;;;;5088713;28;20460;-80
2023/05/09 13:15:43;;;;;;;7.40;6.70;;;;;;;;;;5076821;28;20472;-80
2023/05/09 13:18:10;;;;;;;6.73;6.13;;;;;;;;;;5083136;28;20502;-80
2023/05/09 13:20:37;;;;;;;7.67;6.50;;;;;;;;;;5072713;28;20496;-80
2023/05/09 13:23:03;;;;;;;6.90;6.20;;;;;;;;;;5081734;28;20547;-79
2023/05/09 13:25:30;;;;;;;5.93;5.43;;;;;;;;;;5082123;28;20511;-80
2023/05/09 13:27:56;;;;;;;6.47;5.83;;;;;;;;;;5082992;28;20497;-80
2023/05/09 13:30:23;;;;;;;6.90;6.30;;;;;;;;;;5081494;28;20482;-79
2023/05/09 13:32:51;;;;;;;7.33;6.60;;;;;;;;;;5084561;28;20486;-81
2023/05/09 13:35:17;;;;;;;7.80;6.20;;;;;;;;;;5074262;28;20524;-80
2023/05/09 13:37:45;;;;;;;7.77;7.10;;;;;;;;;;5081428;28;21421;-80
2023/05/09 13:40:16;;;;;;;7.57;6.87;;;;;;;;;;5082431;28;20452;-81
2023/05/09 13:42:43;;;;;;;6.97;6.37;;;;;;;;;;5079698;28;20460;-80
2023/05/09 13:45:10;;;;;;;6.87;5.57;;;;;;;;;;5087238;28;20487;-80
2023/05/09 13:47:36;;;;;;;5.80;5.30;;;;;;;;;;5070893;28;20487;-80
2023/05/09 13:50:04;;;;;;;5.37;4.87;;;;;;;;;;5086666;28;20489;-81
2023/05/09 13:52:31;;;;;;;7.30;5.60;;;;;;;;;;5084189;28;20495;-81
2023/05/09 13:54:57;;;;;;;6.13;5.60;;;;;;;;;;5080557;28;20488;-80
2023/05/09 13:57:24;;;;;;;6.70;6.00;;;;;;;;;;5078862;28;20479;-79
2023/05/09 13:59:50;;;;;;;6.03;5.20;;;;;;;;;;5076348;28;20448;-80
2023/05/09 14:02:17;;;;;;;7.10;5.93;;;;;;;;;;5079858;28;20476;-80
2023/05/09 14:04:44;;;;;;;6.70;6.10;;;;;;;;;;5080610;28;20895;-81
2023/05/09 14:07:13;;;;;;;6.13;5.63;;;;;;;;;;5077321;28;20472;-80
2023/05/09 14:09:41;;;;;;;5.83;5.33;;;;;;;;;;5078561;28;20557;-79
2023/05/09 14:12:08;;;;;;;6.93;5.40;;;;;;;;;;5081016;28;20539;-80
2023/05/09 14:14:35;;;;;;;5.93;5.33;;;;;;;;;;5082120;28;20456;-80
2023/05/09 14:17:03;;;;;;;5.80;5.30;;;;;;;;;;5080463;28;20484;-80
2023/05/09 14:19:30;;;;;;;6.70;6.10;;;;;;;;;;5076069;28;20466;-79
2023/05/09 14:21:56;;;;;;;6.30;5.27;;;;;;;;;;5079584;28;20569;-79
2023/05/09 14:24:24;;;;;;;6.43;5.70;;;;;;;;;;5080269;28;20815;-79
2023/05/09 14:26:51;;;;;;;7.13;6.50;;;;;;;;;;5084132;28;20483;-80
2023/05/09 14:29:17;;;;;;;6.87;6.27;;;;;;;;;;5085986;28;20508;-81
2023/05/09 14:31:44;;;;;;;6.40;5.80;;;;;;;;;;5089075;28;20480;-82
2023/05/09 14:34:10;;;;;;;6.30;5.60;;;;;;;;;;5087995;28;20516;-81